CDT,Max TemperatureF,Mean TemperatureF,Min TemperatureF,Max Dew PointF,MeanDew PointF,Min DewpointF,Max Humidity, Mean Humidity, Min Humidity, Max Sea Level PressureIn, Mean Sea Level PressureIn, Min Sea Level PressureIn, Max VisibilityMiles, Mean VisibilityMiles, Min VisibilityMiles, Max Wind SpeedMPH, Mean Wind SpeedMPH, Max Gust SpeedMPH,PrecipitationIn, CloudCover, Events, WindDirDegrees
2012-10-1,70,56,42,48,43,39,92,63,33,29.92,29.87,29.82,10,9,2,8,2,14,0.00,0,,70
2012-10-2,74,57,40,48,42,35,100,63,25,29.91,29.87,29.83,10,10,2,12,2,15,0.00,0,Fog,33
2012-10-3,76,58,40,52,46,38,100,65,29,30.00,29.95,29.91,10,10,10,14,4,17,0.00,0,,140
2012-10-4,68,55,41,54,47,35,93,73,52,30.18,30.08,30.00,10,10,7,24,9,29,0.09,3,Rain,243
2012-10-5,48,40,32,35,30,25,73,58,42,30.23,30.19,30.15,10,10,10,18,9,23,0.00,3,,286
2012-10-6,48,39,30,28,26,24,78,62,45,30.25,30.22,30.17,10,10,10,20,9,25,0.00,4,,302
2012-10-7,52,43,34,27,23,19,64,46,28,30.25,30.20,30.14,10,10,10,15,6,21,0.00,4,,263
2012-10-8,61,49,36,34,29,23,70,51,32,30.13,30.04,29.95,10,10,10,23,11,32,0.00,0,,201
2012-10-9,66,54,42,43,39,33,92,66,40,29.99,29.91,29.82,10,10,8,26,13,37,0.15,4,Rain,250
2012-10-10,55,44,33,35,29,25,82,57,32,30.20,30.14,30.01,10,10,10,25,9,32,0.00,1,,282
2012-10-11,71,54,36,39,34,28,70,50,29,30.29,30.12,30.04,10,10,10,22,12,26,0.00,2,,246
2012-10-12,58,48,38,34,28,19,67,46,24,30.46,30.33,30.20,10,10,10,16,9,20,0.02,1,Rain,88
2012-10-13,68,58,47,64,55,40,93,82,71,30.18,29.91,29.73,10,7,1,17,8,22,0.81,7,Rain-Thunderstorm,181
2012-10-14,63,52,41,63,56,40,100,89,77,29.88,29.60,29.42,10,8,1,35,11,45,0.84,7,Rain,223
2012-10-15,64,51,37,45,41,37,100,72,44,29.99,29.94,29.89,10,9,5,13,4,16,0.00,0,,268
2012-10-16,76,60,43,53,46,39,83,63,43,29.91,29.65,29.45,10,10,10,22,11,30,0.00,0,,169
2012-10-17,65,57,49,58,51,41,93,73,52,29.49,29.41,29.34,10,8,2,25,11,31,0.43,5,Rain,227
2012-10-18,50,47,44,42,40,35,92,77,61,29.43,29.41,29.38,10,9,3,33,13,40,0.25,8,Rain,232
2012-10-19,54,49,44,46,44,41,100,82,64,29.71,29.51,29.39,10,8,1,20,8,25,0.19,8,Rain,278
2012-10-20,56,47,38,45,42,38,100,80,59,29.94,29.84,29.72,10,8,2,10,5,15,0.00,5,,267
2012-10-21,72,55,37,54,46,37,100,75,49,29.95,29.91,29.87,10,10,5,15,7,17,0.00,0,,120
2012-10-22,67,62,57,64,61,54,100,89,78,29.91,29.86,29.80,10,7,1,20,5,23,0.13,6,Rain-Thunderstorm,111
2012-10-23,74,67,60,64,62,59,100,84,68,29.88,29.84,29.79,10,7,1,15,7,20,0.06,6,Rain,142
2012-10-24,80,71,62,66,62,58,93,76,58,29.88,29.82,29.74,10,9,2,20,10,28,0.24,4,Rain-Thunderstorm,182
2012-10-25,73,57,40,63,50,30,86,78,70,30.17,29.82,29.62,10,8,2,28,18,37,0.23,6,Rain-Thunderstorm,259
2012-10-26,49,41,33,29,27,26,82,62,42,30.39,30.33,30.19,10,10,10,22,11,32,0.00,1,,322
2012-10-27,47,37,27,28,25,24,85,65,45,30.40,30.35,30.30,10,10,10,13,4,16,0.00,0,,352
2012-10-28,51,39,27,29,26,22,85,62,39,30.38,30.33,30.28,10,10,7,13,3,24,0.00,1,,34
2012-10-29,53,39,24,31,25,20,92,61,30,30.38,30.29,30.17,10,10,8,12,3,15,0.00,0,,18
2012-10-30,54,43,32,26,23,19,69,48,26,30.16,30.01,29.90,10,10,10,22,10,30,0.00,0,,329
2012-10-31,52,39,26,25,21,17,81,54,26,29.97,29.94,29.90,10,10,10,22,9,29,0.00,0,,296